Time;durP1;ratioP1;P1;durP2;ratioP2;P2;SDS_P1;SDS_P2;PMS_P1;PMS_P2;Temp;Humidity;BMP_temperature;BMP_pressure;BME280_temperature;BME280_humidity;BME280_pressure;Samples;Min_cycle;Max_cycle;Signal;HPM_P1;HPM_P2
2024/04/04 00:00:19;;;;;;;2.30;0.80;;;;;;;11.99;100.00;97768.31;5101010;28;20283;-79
2024/04/04 00:02:46;;;;;;;2.43;0.90;;;;;;;11.97;100.00;97771.06;5101135;28;20195;-79
2024/04/04 00:05:12;;;;;;;3.57;1.17;;;;;;;11.95;100.00;97772.16;5101227;28;20222;-79
2024/04/04 00:07:38;;;;;;;2.27;0.77;;;;;;;11.97;100.00;97771.06;5101150;28;20196;-79
2024/04/04 00:10:05;;;;;;;1.90;1.07;;;;;;;11.99;100.00;97773.59;5100707;28;20290;-79
2024/04/04 00:12:31;;;;;;;1.53;0.90;;;;;;;11.99;100.00;97785.03;5100972;28;20187;-79
2024/04/04 00:14:58;;;;;;;1.40;0.70;;;;;;;11.95;100.00;97780.09;5100873;28;20251;-79
2024/04/04 00:17:25;;;;;;;1.47;0.87;;;;;;;11.84;100.00;97790.72;5100851;28;20198;-79
2024/04/04 00:19:50;;;;;;;3.30;1.10;;;;;;;11.75;100.00;97791.44;5100466;28;20292;-79
2024/04/04 00:22:17;;;;;;;2.33;0.90;;;;;;;11.68;100.00;97796.38;5100727;28;20196;-79
2024/04/04 00:24:42;;;;;;;0.80;0.70;;;;;;;11.62;100.00;97796.03;5100734;28;20267;-79
2024/04/04 00:27:09;;;;;;;1.20;0.80;;;;;;;11.56;100.00;97801.78;5100710;28;20216;-79
2024/04/04 00:29:34;;;;;;;2.37;1.00;;;;;;;11.55;100.00;97794.81;5099290;28;20250;-79
2024/04/04 00:32:03;;;;;;;2.57;1.30;;;;;;;11.51;100.00;97798.63;5100298;28;20208;-79
2024/04/04 00:34:28;;;;;;;1.63;1.00;;;;;;;11.50;100.00;97797.78;5100532;28;20211;-78
2024/04/04 00:36:55;;;;;;;1.60;0.87;;;;;;;11.49;100.00;97795.28;5100473;28;20205;-78
2024/04/04 00:39:20;;;;;;;1.43;0.77;;;;;;;11.47;100.00;97802.47;5100255;28;20202;-78
2024/04/04 00:41:47;;;;;;;1.53;0.80;;;;;;;11.44;100.00;97790.31;5100335;28;20187;-78
2024/04/04 00:44:12;;;;;;;1.53;1.13;;;;;;;11.43;100.00;97798.41;5100420;28;20267;-79
2024/04/04 00:46:39;;;;;;;1.77;0.90;;;;;;;11.33;100.00;97794.78;5100259;28;20220;-79
2024/04/04 00:49:06;;;;;;;3.20;0.80;;;;;;;11.25;100.00;97791.88;5100301;28;20206;-79
2024/04/04 00:51:32;;;;;;;1.37;1.00;;;;;;;11.21;100.00;97791.28;5100170;28;20201;-79
2024/04/04 00:53:58;;;;;;;1.67;0.90;;;;;;;11.15;100.00;97796.19;5100252;28;20250;-79
2024/04/04 00:56:25;;;;;;;3.40;0.87;;;;;;;11.09;100.00;97791.38;5100150;28;20213;-79
2024/04/04 00:58:51;;;;;;;2.03;1.10;;;;;;;11.06;100.00;97795.09;5099976;28;20183;-79
2024/04/04 01:01:18;;;;;;;3.67;1.17;;;;;;;10.99;100.00;97800.97;5099410;28;20211;-79
2024/04/04 01:03:43;;;;;;;3.47;1.20;;;;;;;10.95;100.00;97800.34;5099957;28;20204;-79
2024/04/04 01:06:11;;;;;;;1.80;1.10;;;;;;;10.90;100.00;97806.94;5099839;28;20225;-79
2024/04/04 01:08:36;;;;;;;1.93;1.03;;;;;;;10.88;100.00;97801.78;5099689;28;20200;-79
2024/04/04 01:11:03;;;;;;;4.47;0.97;;;;;;;10.86;100.00;97806.34;5099450;28;20210;-79
2024/04/04 01:13:29;;;;;;;1.73;1.00;;;;;;;10.87;100.00;97805.38;5099833;28;20201;-79
2024/04/04 01:15:55;;;;;;;3.60;1.00;;;;;;;10.81;100.00;97802.34;5099556;28;20191;-79
2024/04/04 01:18:21;;;;;;;1.30;0.90;;;;;;;10.72;100.00;97798.63;5099762;28;20261;-79
2024/04/04 01:20:48;;;;;;;1.10;0.70;;;;;;;10.60;100.00;97798.69;5099283;28;20230;-79
2024/04/04 01:23:15;;;;;;;1.03;0.80;;;;;;;10.47;100.00;97800.53;5099484;28;20199;-79
2024/04/04 01:25:42;;;;;;;0.97;0.80;;;;;;;10.38;100.00;97798.56;5099353;28;21215;-79
2024/04/04 01:28:08;;;;;;;1.40;1.00;;;;;;;10.27;100.00;97798.53;5098961;28;20191;-79
2024/04/04 01:30:34;;;;;;;2.37;0.70;;;;;;;10.15;100.00;97807.34;5098997;28;20230;-79
2024/04/04 01:33:00;;;;;;;1.57;0.90;;;;;;;10.07;100.00;97814.97;5099105;28;20250;-79
2024/04/04 01:35:26;;;;;;;2.03;1.23;;;;;;;10.04;100.00;97812.56;5098936;28;20205;-79
2024/04/04 01:37:52;;;;;;;1.73;0.93;;;;;;;9.99;100.00;97812.00;5099003;28;20251;-79
2024/04/04 01:40:18;;;;;;;0.60;0.60;;;;;;;9.97;100.00;97808.66;5098725;28;20234;-79
2024/04/04 01:42:45;;;;;;;1.80;0.90;;;;;;;10.05;100.00;97816.88;5098927;28;20258;-78
2024/04/04 01:45:12;;;;;;;1.17;1.00;;;;;;;10.21;100.00;97817.47;5098876;28;20188;-79
2024/04/04 01:47:37;;;;;;;1.90;0.93;;;;;;;10.38;100.00;97814.41;5098946;28;20247;-79
2024/04/04 01:50:05;;;;;;;2.00;0.70;;;;;;;10.46;100.00;97804.16;5098336;28;20210;-79
2024/04/04 01:52:31;;;;;;;2.23;0.80;;;;;;;10.57;100.00;97804.16;5098644;28;20197;-79
2024/04/04 01:54:58;;;;;;;3.50;1.10;;;;;;;10.62;100.00;97800.25;5098704;28;20192;-79
2024/04/04 01:57:24;;;;;;;1.60;0.83;;;;;;;10.69;100.00;97803.25;5098345;28;20211;-79
2024/04/04 01:59:53;;;;;;;1.80;0.70;;;;;;;10.74;100.00;97809.91;5098298;28;20214;-78
2024/04/04 02:02:18;;;;;;;3.67;1.07;;;;;;;10.79;100.00;97804.28;5098534;28;20262;-78
2024/04/04 02:04:45;;;;;;;1.10;0.80;;;;;;;10.87;100.00;97808.03;5098353;28;20207;-78
2024/04/04 02:07:11;;;;;;;1.50;0.70;;;;;;;10.96;100.00;97795.91;5098167;28;20289;-78
2024/04/04 02:09:38;;;;;;;1.57;0.80;;;;;;;11.05;100.00;97797.84;5097962;28;20207;-79
2024/04/04 02:12:04;;;;;;;1.47;0.77;;;;;;;11.06;100.00;97792.44;5098161;28;20255;-79
2024/04/04 02:14:31;;;;;;;2.10;0.73;;;;;;;11.08;100.00;97802.91;5098301;28;20210;-79
2024/04/04 02:16:58;;;;;;;1.30;0.80;;;;;;;11.12;100.00;97799.09;5098125;28;20452;-79
2024/04/04 02:19:25;;;;;;;2.60;0.80;;;;;;;11.11;100.00;97789.44;5097720;28;20205;-79
2024/04/04 02:21:50;;;;;;;2.77;0.70;;;;;;;11.14;100.00;97795.34;5097975;28;20258;-79
2024/04/04 02:24:17;;;;;;;1.27;0.80;;;;;;;11.13;100.00;97788.38;5097982;28;20181;-79
2024/04/04 02:26:42;;;;;;;3.77;1.20;;;;;;;11.11;100.00;97794.72;5097560;28;20226;-79
2024/04/04 02:29:09;;;;;;;1.30;0.70;;;;;;;11.11;100.00;97790.28;5097877;28;20213;-79
2024/04/04 02:31:35;;;;;;;0.70;0.70;;;;;;;11.15;100.00;97786.47;5097724;28;20191;-79
2024/04/04 02:34:03;;;;;;;2.77;0.90;;;;;;;11.20;100.00;97789.56;5097689;28;20195;-79
2024/04/04 02:36:29;;;;;;;0.90;0.80;;;;;;;11.12;100.00;97785.88;5097682;28;20217;-79
2024/04/04 02:38:56;;;;;;;2.70;0.93;;;;;;;11.08;100.00;97789.69;5097755;28;20202;-78
2024/04/04 02:41:21;;;;;;;1.50;0.70;;;;;;;11.02;100.00;97790.16;5097467;28;20235;-78
2024/04/04 02:43:48;;;;;;;1.67;1.00;;;;;;;10.98;100.00;97789.56;5097739;28;20205;-78
2024/04/04 02:46:13;;;;;;;1.27;0.67;;;;;;;10.90;100.00;97791.09;5097524;28;20305;-79
2024/04/04 02:48:41;;;;;;;1.60;0.90;;;;;;;10.83;100.00;97788.06;5097446;28;20188;-79
2024/04/04 02:51:08;;;;;;;0.73;0.70;;;;;;;10.81;100.00;97799.69;5097167;28;20237;-79
2024/04/04 02:53:35;;;;;;;1.73;0.83;;;;;;;10.80;100.00;97793.59;5096618;28;20226;-79
2024/04/04 02:56:00;;;;;;;0.70;0.70;;;;;;;10.76;100.00;97793.94;5097369;28;20202;-79
2024/04/04 02:58:27;;;;;;;1.17;0.70;;;;;;;10.77;100.00;97798.25;5097322;28;20194;-79
2024/04/04 03:00:53;;;;;;;1.40;0.90;;;;;;;10.83;100.00;97789.88;5096931;28;20275;-79
2024/04/04 03:03:20;;;;;;;0.77;0.70;;;;;;;10.90;100.00;97791.09;5097465;28;20205;-79
2024/04/04 03:05:46;;;;;;;1.23;0.60;;;;;;;11.02;100.00;97776.94;5097740;28;20213;-79
2024/04/04 03:08:14;;;;;;;1.63;0.67;;;;;;;11.08;100.00;97779.13;5097764;28;20220;-79
2024/04/04 03:10:40;;;;;;;1.00;0.60;;;;;;;11.11;100.00;97782.38;5097016;28;20242;-79
2024/04/04 03:13:07;;;;;;;2.13;1.17;;;;;;;11.10;100.00;97772.75;5097258;28;20194;-79
2024/04/04 03:15:32;;;;;;;1.93;0.90;;;;;;;11.11;100.00;97774.44;5097609;28;20264;-79
2024/04/04 03:17:59;;;;;;;1.00;0.80;;;;;;;11.13;100.00;97777.78;5097777;28;20204;-79
2024/04/04 03:20:25;;;;;;;2.07;0.80;;;;;;;11.17;100.00;97778.38;5097108;28;20230;-79
2024/04/04 03:22:52;;;;;;;0.70;0.70;;;;;;;11.22;100.00;97773.59;5096793;28;20191;-79
2024/04/04 03:25:19;;;;;;;2.10;1.07;;;;;;;11.20;100.00;97770.22;5097080;28;20673;-79
2024/04/04 03:27:46;;;;;;;1.10;0.70;;;;;;;11.17;100.00;97767.81;5097055;28;20264;-79
2024/04/04 03:30:11;;;;;;;1.20;0.70;;;;;;;11.15;100.00;97775.03;5096877;28;20241;-79
2024/04/04 03:32:38;;;;;;;1.10;0.73;;;;;;;11.18;100.00;97774.81;5097060;28;20191;-79
2024/04/04 03:35:04;;;;;;;1.13;0.70;;;;;;;11.16;100.00;97774.06;5096880;28;20200;-79
2024/04/04 03:37:32;;;;;;;2.70;1.20;;;;;;;11.14;100.00;97768.88;5097120;28;20215;-79
2024/04/04 03:39:59;;;;;;;1.67;0.80;;;;;;;11.17;100.00;97773.97;5096902;28;20224;-79
2024/04/04 03:42:27;;;;;;;0.80;0.70;;;;;;;11.16;100.00;97766.13;5097104;28;20205;-78
2024/04/04 03:44:53;;;;;;;1.40;0.90;;;;;;;11.14;100.00;97768.06;5096967;28;20245;-79
2024/04/04 03:47:19;;;;;;;2.20;0.90;;;;;;;11.10;100.00;97766.59;5096556;28;20232;-78
2024/04/04 03:49:46;;;;;;;0.70;0.63;;;;;;;11.02;100.00;97769.00;5096602;28;20214;-79
2024/04/04 03:52:12;;;;;;;1.00;0.80;;;;;;;10.94;100.00;97772.22;5096244;28;20219;-79
2024/04/04 03:54:38;;;;;;;2.27;1.20;;;;;;;10.88;100.00;97782.44;5096640;28;20200;-78
2024/04/04 03:57:06;;;;;;;2.30;0.87;;;;;;;10.76;100.00;97780.72;5096760;28;20188;-78
2024/04/04 03:59:34;;;;;;;1.67;0.80;;;;;;;10.65;100.00;97783.31;5096540;28;20221;-78
2024/04/04 04:02:00;;;;;;;1.23;0.80;;;;;;;10.57;100.00;97783.88;5096612;28;20257;-78
2024/04/04 04:04:27;;;;;;;2.23;1.10;;;;;;;10.50;100.00;97779.16;5097825;28;20204;-78
2024/04/04 04:06:52;;;;;;;2.20;0.97;;;;;;;10.48;100.00;97779.31;5100339;28;20245;-80
2024/04/04 04:09:19;;;;;;;1.33;0.80;;;;;;;10.40;100.00;97786.94;5100020;28;20209;-78
2024/04/04 04:11:44;;;;;;;2.00;0.70;;;;;;;10.41;100.00;97793.06;5100202;28;20214;-80
2024/04/04 04:14:10;;;;;;;2.20;0.83;;;;;;;10.38;100.00;97786.22;5100193;28;20205;-78
2024/04/04 04:16:37;;;;;;;3.00;0.90;;;;;;;10.35;100.00;97788.25;5100222;28;20196;-78
2024/04/04 04:19:04;;;;;;;1.87;0.80;;;;;;;10.38;100.00;97793.28;5099656;28;20204;-78
2024/04/04 04:21:29;;;;;;;2.20;1.00;;;;;;;10.34;100.00;97787.38;5099687;28;20199;-78
2024/04/04 04:23:57;;;;;;;1.67;1.00;;;;;;;10.31;100.00;97784.13;5100050;28;20200;-79
2024/04/04 04:26:23;;;;;;;1.07;0.70;;;;;;;10.30;100.00;97785.09;5099943;28;20227;-78
2024/04/04 04:28:50;;;;;;;2.03;0.60;;;;;;;10.27;100.00;97780.06;5099881;28;20219;-78
2024/04/04 04:31:23;;;;;;;1.87;0.77;;;;;;;10.30;100.00;97779.81;5099514;28;20205;-78
2024/04/04 04:33:52;;;;;;;2.77;0.80;;;;;;;10.32;100.00;97789.31;5099880;28;20220;-78
2024/04/04 04:36:17;;;;;;;0.83;0.80;;;;;;;10.35;100.00;97782.97;5099582;28;20184;-78
2024/04/04 04:38:44;;;;;;;2.53;1.03;;;;;;;10.33;100.00;97784.88;5099704;28;20210;-78
2024/04/04 04:41:10;;;;;;;2.00;0.70;;;;;;;10.29;100.00;97778.94;5099436;28;20212;-79
2024/04/04 04:43:37;;;;;;;1.70;0.73;;;;;;;10.23;100.00;97781.22;5099617;28;20197;-78
2024/04/04 04:46:03;;;;;;;1.63;0.70;;;;;;;10.16;100.00;97770.25;5099421;28;20258;-77
2024/04/04 04:48:29;;;;;;;2.63;0.80;;;;;;;10.13;100.00;97773.13;5098901;28;20195;-79
2024/04/04 04:50:56;;;;;;;1.80;0.67;;;;;;;10.14;100.00;97774.81;5098643;28;20222;-78
2024/04/04 04:53:23;;;;;;;1.00;0.60;;;;;;;10.14;100.00;97768.66;5099147;28;20197;-80
2024/04/04 04:55:49;;;;;;;0.50;0.50;;;;;;;10.26;100.00;97767.78;5099511;28;20201;-79
2024/04/04 04:58:15;;;;;;;2.17;0.60;;;;;;;10.31;100.00;97763.00;5081830;28;20209;-79
2024/04/04 05:00:41;;;;;;;1.73;0.57;;;;;;;10.30;100.00;97769.25;5098945;28;20365;-79
2024/04/04 05:03:08;;;;;;;1.30;0.60;;;;;;;10.26;100.00;97768.63;5099063;28;20224;-80
2024/04/04 05:05:33;;;;;;;0.80;0.73;;;;;;;10.24;100.00;97769.69;5099130;28;20241;-79
2024/04/04 05:08:02;;;;;;;0.80;0.70;;;;;;;10.29;100.00;97768.38;5098948;28;20221;-79
2024/04/04 05:10:29;;;;;;;1.40;0.70;;;;;;;10.27;100.00;97774.75;5098785;28;20216;-79
2024/04/04 05:12:56;;;;;;;2.67;0.87;;;;;;;10.25;100.00;97771.38;5098904;28;20200;-79
2024/04/04 05:15:21;;;;;;;1.13;0.70;;;;;;;10.32;100.00;97769.97;5098538;28;20245;-80
2024/04/04 05:17:48;;;;;;;1.23;0.60;;;;;;;10.29;100.00;97772.84;5098548;28;20201;-79
2024/04/04 05:20:13;;;;;;;2.30;0.63;;;;;;;10.24;100.00;97757.34;5098397;28;20210;-79
2024/04/04 05:22:40;;;;;;;1.53;0.80;;;;;;;10.28;100.00;97750.84;5098839;28;20189;-79
2024/04/04 05:25:07;;;;;;;2.40;0.87;;;;;;;10.31;100.00;97755.94;5098548;28;20184;-79
2024/04/04 05:27:34;;;;;;;1.97;0.70;;;;;;;10.38;100.00;97753.66;5098513;28;20214;-79
2024/04/04 05:30:05;;;;;;;1.90;0.80;;;;;;;10.42;100.00;97753.34;5098259;28;20274;-79
2024/04/04 05:32:31;;;;;;;1.50;0.70;;;;;;;10.48;100.00;97757.31;5098685;28;20179;-79
2024/04/04 05:34:57;;;;;;;1.70;0.67;;;;;;;10.46;100.00;97765.34;5098592;28;20223;-79
2024/04/04 05:37:23;;;;;;;1.10;0.80;;;;;;;10.49;100.00;97756.34;5098592;28;20765;-79
2024/04/04 05:39:49;;;;;;;2.33;0.93;;;;;;;10.48;100.00;97762.59;5098213;28;20277;-79
2024/04/04 05:42:17;;;;;;;1.67;0.63;;;;;;;10.56;100.00;97760.22;5098558;28;20213;-78
2024/04/04 05:44:42;;;;;;;2.20;0.80;;;;;;;10.67;100.00;97770.81;5098254;28;20199;-79
2024/04/04 05:47:09;;;;;;;1.50;0.90;;;;;;;10.70;100.00;97768.78;5098389;28;20219;-79
2024/04/04 05:49:34;;;;;;;2.90;1.10;;;;;;;10.71;100.00;97759.91;5097873;28;20489;-79
2024/04/04 05:52:01;;;;;;;3.43;1.03;;;;;;;10.76;100.00;97762.22;5098155;28;20193;-79
2024/04/04 05:54:27;;;;;;;0.80;0.80;;;;;;;10.75;100.00;97760.50;5098217;28;20254;-79
2024/04/04 05:56:53;;;;;;;1.17;0.80;;;;;;;10.82;100.00;97756.47;5098123;28;20199;-78
2024/04/04 05:59:21;;;;;;;1.60;0.87;;;;;;;10.84;100.00;97759.84;5097886;28;20418;-78
2024/04/04 06:01:47;;;;;;;3.53;0.90;;;;;;;10.89;100.00;97762.97;5098095;28;20214;-79
2024/04/04 06:04:13;;;;;;;4.07;1.20;;;;;;;10.97;100.00;97760.56;5098025;28;20243;-78
2024/04/04 06:06:41;;;;;;;3.00;1.07;;;;;;;11.13;100.00;97750.50;5097817;28;20229;-78
2024/04/04 06:09:07;;;;;;;4.20;1.00;;;;;;;11.30;100.00;97750.03;5097821;28;20186;-79
2024/04/04 06:11:33;;;;;;;2.97;0.90;;;;;;;11.60;100.00;97747.66;5097665;28;20233;-79
2024/04/04 06:13:59;;;;;;;3.23;1.03;;;;;;;11.82;100.00;97734.41;5097424;28;20253;-79
2024/04/04 06:16:27;;;;;;;1.80;1.13;;;;;;;11.82;100.00;97734.41;5097581;28;20216;-82
2024/04/04 06:18:52;;;;;;;1.83;0.90;;;;;;;12.30;100.00;97725.94;5097587;28;20251;-79
2024/04/04 06:21:18;;;;;;;2.23;0.90;;;;;;;12.57;100.00;97714.84;5096902;28;20238;-79
2024/04/04 06:23:44;;;;;;;4.30;1.03;;;;;;;12.71;100.00;97709.25;5097634;28;20254;-79
2024/04/04 06:26:10;;;;;;;2.90;1.00;;;;;;;12.89;100.00;97694.44;5079658;28;20195;-79
2024/04/04 06:28:36;;;;;;;3.23;1.20;;;;;;;12.97;100.00;97687.50;5096720;28;20231;-78
2024/04/04 06:31:03;;;;;;;3.33;1.30;;;;;;;13.04;100.00;97698.44;5096958;28;20225;-76
2024/04/04 06:33:30;;;;;;;3.90;0.90;;;;;;;13.04;100.00;97693.16;5097266;28;20476;-77
2024/04/04 06:35:56;;;;;;;5.53;1.37;;;;;;;13.06;100.00;97700.00;5097217;28;20212;-77
2024/04/04 06:38:22;;;;;;;3.83;1.13;;;;;;;13.15;100.00;97698.38;5097037;28;20258;-77
2024/04/04 06:40:48;;;;;;;2.57;1.10;;;;;;;13.19;100.00;97695.31;5096751;28;20207;-78
2024/04/04 06:43:14;;;;;;;4.20;1.40;;;;;;;13.17;100.00;97691.97;5096695;28;20256;-78
2024/04/04 06:45:40;;;;;;;3.17;1.17;;;;;;;13.22;100.00;97687.09;5097308;28;20200;-78
2024/04/04 06:48:07;;;;;;;3.07;1.00;;;;;;;13.23;100.00;97680.81;5096899;28;20244;-78
2024/04/04 06:50:35;;;;;;;5.70;1.00;;;;;;;13.35;100.00;97682.41;5096841;28;20215;-77
2024/04/04 06:53:01;;;;;;;6.50;1.50;;;;;;;13.29;100.00;97687.41;5096858;28;20207;-77
2024/04/04 06:55:28;;;;;;;3.93;1.13;;;;;;;13.24;100.00;97676.34;5096586;28;20196;-78
2024/04/04 06:57:53;;;;;;;4.50;1.33;;;;;;;13.25;100.00;97683.31;5096907;28;20203;-78
2024/04/04 07:00:20;;;;;;;4.83;1.20;;;;;;;13.27;100.00;97687.53;5096735;28;20212;-78
2024/04/04 07:02:46;;;;;;;4.03;0.97;;;;;;;13.29;100.00;97695.34;5097028;28;20248;-78
2024/04/04 07:05:12;;;;;;;5.73;1.20;;;;;;;13.36;100.00;97686.75;5097003;28;20213;-78
2024/04/04 07:07:39;;;;;;;5.63;1.30;;;;;;;13.47;100.00;97691.09;5096591;28;20458;-78
2024/04/04 07:10:06;;;;;;;2.60;1.00;;;;;;;13.58;100.00;97683.03;5093104;28;20233;-79
2024/04/04 07:12:32;;;;;;;6.77;2.00;;;;;;;13.81;100.00;97680.00;5079982;28;20204;-80
2024/04/04 07:14:59;;;;;;;6.40;1.50;;;;;;;14.12;100.00;97678.13;5078798;28;20308;-79
2024/04/04 07:17:28;;;;;;;2.97;0.90;;;;;;;14.34;100.00;97677.84;5076482;28;20204;-81
2024/04/04 07:19:55;;;;;;;4.50;1.17;;;;;;;14.55;99.72;97673.25;5077307;28;20229;-79
2024/04/04 07:22:21;;;;;;;2.80;1.00;;;;;;;14.68;93.36;97652.50;5072084;28;20274;-80
2024/04/04 07:24:49;;;;;;;3.83;1.20;;;;;;;14.70;91.97;97651.38;5073605;28;20610;-79
2024/04/04 07:27:15;;;;;;;4.67;1.50;;;;;;;14.82;92.30;97674.19;5069281;28;20240;-79
2024/04/04 07:29:43;;;;;;;3.23;1.43;;;;;;;14.88;92.09;97659.47;5070256;28;20274;-78
2024/04/04 07:32:08;;;;;;;3.03;1.07;;;;;;;14.83;90.09;97648.41;5071521;28;20214;-80
2024/04/04 07:34:35;;;;;;;5.83;1.30;;;;;;;14.86;88.23;97645.47;5072229;28;20212;-79
2024/04/04 07:37:01;;;;;;;4.80;1.13;;;;;;;14.67;86.91;97640.19;5071443;28;20230;-79
2024/04/04 07:39:29;;;;;;;3.97;1.10;;;;;;;14.60;86.97;97663.03;5074808;28;20230;-80
2024/04/04 07:41:56;;;;;;;1.80;0.90;;;;;;;14.52;86.29;97662.88;5076065;28;20218;-78
2024/04/04 07:44:23;;;;;;;7.03;1.30;;;;;;;14.41;89.19;97686.94;5075798;28;20210;-78
2024/04/04 07:46:51;;;;;;;6.27;1.20;;;;;;;14.28;91.30;97702.34;5081374;28;20233;-78
2024/04/04 07:49:18;;;;;;;4.37;1.10;;;;;;;14.07;94.49;97705.13;5081577;28;20667;-78
2024/04/04 07:51:44;;;;;;;3.97;1.30;;;;;;;13.97;97.94;97728.16;5083370;28;20646;-78
2024/04/04 07:54:10;;;;;;;3.10;1.40;;;;;;;13.92;98.17;97724.22;5083397;28;20210;-80
2024/04/04 07:56:36;;;;;;;4.20;1.17;;;;;;;13.85;98.53;97720.44;5083874;28;20628;-78
2024/04/04 07:59:04;;;;;;;4.50;1.30;;;;;;;13.98;99.18;97732.50;5081749;28;20252;-78
2024/04/04 08:01:33;;;;;;;3.20;1.10;;;;;;;13.95;100.00;97742.56;5082860;28;20252;-78
2024/04/04 08:04:00;;;;;;;4.10;1.07;;;;;;;13.97;96.81;97725.50;5082905;28;20218;-78
2024/04/04 08:06:25;;;;;;;4.70;1.37;;;;;;;14.01;97.22;97736.69;5082109;28;20211;-78
2024/04/04 08:08:52;;;;;;;4.43;1.30;;;;;;;14.02;95.20;97719.78;5081537;28;20758;-78
2024/04/04 08:11:21;;;;;;;4.63;1.40;;;;;;;14.10;96.02;97731.41;5079637;28;20233;-78
2024/04/04 08:13:47;;;;;;;4.67;1.27;;;;;;;14.20;96.36;97736.75;5080627;28;20209;-78
2024/04/04 08:16:17;;;;;;;3.53;1.20;;;;;;;14.16;95.07;97735.31;5081461;28;20206;-78
2024/04/04 08:18:43;;;;;;;5.47;1.30;;;;;;;14.03;92.95;97730.28;5081333;28;20721;-77
2024/04/04 08:21:09;;;;;;;4.37;1.17;;;;;;;14.00;93.22;97725.22;5080599;28;20268;-78
2024/04/04 08:23:39;;;;;;;2.27;0.87;;;;;;;13.94;93.16;97735.56;5074447;28;20572;-76
2024/04/04 08:26:04;;;;;;;2.87;1.03;;;;;;;14.00;93.14;97729.72;5074877;28;20291;-75
2024/04/04 08:28:31;;;;;;;3.53;1.07;;;;;;;14.00;93.77;97745.66;5074873;28;20687;-76
2024/04/04 08:30:57;;;;;;;2.60;0.97;;;;;;;14.12;94.55;97749.88;5074717;28;20536;-76
2024/04/04 08:33:25;;;;;;;4.60;1.10;;;;;;;14.15;93.45;97749.59;5074931;28;20219;-76
2024/04/04 08:35:50;;;;;;;3.67;1.20;;;;;;;14.14;92.64;97743.44;5077313;28;20720;-77
2024/04/04 08:38:17;;;;;;;2.60;1.07;;;;;;;14.20;93.15;97744.72;5077662;28;20260;-77
2024/04/04 08:40:43;;;;;;;4.60;1.07;;;;;;;14.23;93.06;97747.97;5076557;28;20588;-77
2024/04/04 08:43:09;;;;;;;4.47;1.20;;;;;;;14.14;93.53;97753.22;5077224;28;20219;-78
2024/04/04 08:45:45;;;;;;;4.37;0.80;;;;;;;14.12;93.28;97768.47;5078046;28;20213;-78
2024/04/04 08:48:15;;;;;;;2.10;0.83;;;;;;;14.08;92.82;97767.06;5078695;28;20230;-77
2024/04/04 08:50:45;;;;;;;2.70;1.33;;;;;;;14.03;95.96;97782.56;5076463;28;20233;-77
2024/04/04 08:53:13;;;;;;;3.40;1.30;;;;;;;13.97;100.00;97799.91;5077321;28;20236;-77
2024/04/04 08:55:39;;;;;;;4.70;1.53;;;;;;;13.90;100.00;97800.56;5075960;28;20753;-77
2024/04/04 08:58:08;;;;;;;2.40;1.00;;;;;;;13.89;100.00;97806.84;5075365;28;20685;-78
2024/04/04 09:00:34;;;;;;;4.37;1.20;;;;;;;13.91;100.00;97788.94;5076104;28;20250;-78
2024/04/04 09:03:01;;;;;;;3.40;1.00;;;;;;;13.96;100.00;97797.38;5075147;28;20685;-78
2024/04/04 09:05:26;;;;;;;3.13;1.07;;;;;;;13.97;100.00;97789.28;5075081;28;20672;-78
2024/04/04 09:07:54;;;;;;;4.30;0.93;;;;;;;13.89;100.00;97793.56;5075567;28;20233;-78
2024/04/04 09:10:20;;;;;;;3.50;0.90;;;;;;;13.85;100.00;97805.44;5075741;28;20280;-78
2024/04/04 09:12:46;;;;;;;6.77;1.87;;;;;;;13.79;100.00;97795.34;5076568;28;20309;-78
2024/04/04 09:15:12;;;;;;;2.60;0.80;;;;;;;13.88;100.00;97803.34;5076340;28;20215;-78
2024/04/04 09:17:38;;;;;;;3.30;1.00;;;;;;;13.90;100.00;97803.22;5076287;28;20200;-78
2024/04/04 09:20:05;;;;;;;2.97;1.10;;;;;;;13.89;100.00;97802.41;5075207;28;20235;-78
2024/04/04 09:22:31;;;;;;;3.93;1.00;;;;;;;13.79;100.00;97803.31;5077076;28;20251;-78
2024/04/04 09:24:59;;;;;;;2.00;1.10;;;;;;;13.81;100.00;97809.34;5077952;28;20237;-79
2024/04/04 09:27:26;;;;;;;2.87;1.03;;;;;;;13.84;100.00;97806.41;5075949;28;20234;-78
2024/04/04 09:29:52;;;;;;;3.00;1.20;;;;;;;13.91;100.00;97811.06;5076670;28;20225;-78
2024/04/04 09:32:20;;;;;;;2.17;1.10;;;;;;;13.89;100.00;97812.16;5079101;28;20275;-80
2024/04/04 09:34:46;;;;;;;3.30;1.00;;;;;;;13.80;100.00;97823.59;5081147;28;20293;-79
2024/04/04 09:37:13;;;;;;;3.80;1.10;;;;;;;13.75;100.00;97826.63;5081698;28;20672;-79
2024/04/04 09:39:40;;;;;;;4.47;1.20;;;;;;;13.67;100.00;97822.97;5098040;28;20213;-79
2024/04/04 09:42:08;;;;;;;1.93;0.93;;;;;;;13.66;100.00;97816.84;5098115;28;20194;-77
2024/04/04 09:44:34;;;;;;;4.68;1.00;;;;;;;13.70;100.00;97823.53;5098017;28;20416;-76
2024/04/04 09:47:04;;;;;;;4.97;1.07;;;;;;;13.71;100.00;97830.56;5095622;28;20200;-77
2024/04/04 09:49:30;;;;;;;1.53;0.90;;;;;;;13.81;100.00;97835.91;5095283;28;20292;-78
2024/04/04 09:51:58;;;;;;;3.83;1.10;;;;;;;13.83;100.00;97823.34;5095659;28;20213;-78
2024/04/04 09:54:24;;;;;;;3.90;1.00;;;;;;;13.88;100.00;97818.47;5095576;28;20296;-79
2024/04/04 09:56:52;;;;;;;3.47;1.20;;;;;;;13.89;100.00;97830.75;5095532;28;20198;-79
2024/04/04 09:59:24;;;;;;;2.93;1.03;;;;;;;13.86;100.00;97809.75;5097367;28;20274;-79
2024/04/04 10:01:51;;;;;;;2.47;0.87;;;;;;;13.79;100.00;97829.88;5097923;28;20258;-80
2024/04/04 10:04:19;;;;;;;4.63;1.33;;;;;;;13.76;100.00;97830.16;5097735;28;20258;-79
2024/04/04 10:06:48;;;;;;;2.47;1.00;;;;;;;13.69;100.00;97842.28;5097660;28;20211;-79
2024/04/04 10:09:14;;;;;;;2.40;0.97;;;;;;;13.67;100.00;97838.91;5097170;28;20223;-78
2024/04/04 10:11:41;;;;;;;4.67;1.13;;;;;;;13.61;100.00;97837.63;5097451;28;20272;-78
2024/04/04 10:14:12;;;;;;;2.53;1.10;;;;;;;13.57;100.00;97833.53;5098140;28;20257;-78
2024/04/04 10:16:45;;;;;;;2.87;1.13;;;;;;;13.56;100.00;97846.97;5098153;28;20204;-78
2024/04/04 10:19:17;;;;;;;2.47;1.10;;;;;;;13.68;100.00;97843.25;5097036;28;20181;-78
2024/04/04 10:21:44;;;;;;;3.80;1.20;;;;;;;13.73;100.00;97827.75;5087292;28;20417;-79
2024/04/04 10:24:19;;;;;;;5.07;1.13;;;;;;;13.80;100.00;97829.75;5095901;28;20219;-80
2024/04/04 10:26:51;;;;;;;3.37;1.00;;;;;;;13.92;100.00;97833.13;5096764;28;20188;-79
2024/04/04 10:29:17;;;;;;;6.40;1.10;;;;;;;13.99;100.00;97836.97;5097081;28;20253;-79
2024/04/04 10:31:46;;;;;;;4.03;1.20;;;;;;;14.03;100.00;97835.72;5097453;28;20254;-79
2024/04/04 10:34:12;;;;;;;2.90;1.00;;;;;;;14.08;100.00;97828.19;5097810;28;20202;-79
2024/04/04 10:36:46;;;;;;;4.63;1.33;;;;;;;14.14;100.00;97823.19;5097273;28;20194;-79
2024/04/04 10:39:16;;;;;;;3.80;0.90;;;;;;;14.22;100.00;97820.72;5096227;28;20207;-79
2024/04/04 10:41:44;;;;;;;2.10;0.80;;;;;;;14.25;100.00;97832.88;5096565;28;20417;-79
2024/04/04 10:44:11;;;;;;;2.90;1.03;;;;;;;14.41;100.00;97841.16;5096648;28;20192;-79
2024/04/04 10:46:47;;;;;;;3.73;1.13;;;;;;;14.47;100.00;97827.31;5096657;28;20223;-78
2024/04/04 10:49:13;;;;;;;2.87;1.10;;;;;;;14.61;100.00;97832.25;5096387;28;20301;-78
2024/04/04 10:51:43;;;;;;;3.83;1.30;;;;;;;14.68;100.00;97820.09;5096107;28;20235;-78
2024/04/04 10:54:09;;;;;;;3.17;1.10;;;;;;;14.64;100.00;97810.69;5096549;28;20331;-78
2024/04/04 10:56:36;;;;;;;3.00;1.10;;;;;;;14.79;100.00;97814.63;5096215;28;20199;-78
2024/04/04 10:59:01;;;;;;;2.13;1.00;;;;;;;14.73;100.00;97821.34;5096659;28;20197;-79
2024/04/04 11:01:28;;;;;;;4.17;1.27;;;;;;;14.75;100.00;97806.09;5095722;28;20244;-78
2024/04/04 11:03:55;;;;;;;2.63;1.00;;;;;;;14.75;100.00;97802.59;5096442;28;20218;-78
2024/04/04 11:06:26;;;;;;;1.80;1.07;;;;;;;14.74;100.00;97801.72;5096529;28;20254;-79
2024/04/04 11:08:54;;;;;;;2.13;0.80;;;;;;;14.75;100.00;97784.81;5096147;28;20282;-78
2024/04/04 11:11:23;;;;;;;5.27;1.27;;;;;;;14.76;100.00;97777.66;5096265;28;20240;-79
2024/04/04 11:13:50;;;;;;;2.63;1.00;;;;;;;14.80;100.00;97784.38;5095998;28;20197;-78
2024/04/04 11:16:17;;;;;;;4.17;1.30;;;;;;;14.77;100.00;97784.66;5096639;28;20208;-79
2024/04/04 11:18:43;;;;;;;2.73;1.20;;;;;;;14.71;100.00;97785.22;5096621;28;20261;-79
2024/04/04 11:21:11;;;;;;;3.63;1.20;;;;;;;14.78;100.00;97794.34;5095215;28;20218;-78
2024/04/04 11:23:37;;;;;;;2.37;0.80;;;;;;;14.81;99.71;97783.41;5096674;28;20272;-78